createdAt,value
2023-05-18T00:00:00.009Z,19.90
2023-05-18T00:15:03.060Z,17.80
2023-05-18T00:30:06.612Z,16.40
2023-05-18T00:45:10.004Z,16.90
2023-05-18T01:00:14.125Z,17.60
2023-05-18T01:15:20.000Z,18.50
2023-05-18T01:30:23.694Z,15.00
2023-05-18T01:45:30.262Z,16.00
2023-05-18T02:00:33.518Z,16.10
2023-05-18T02:15:36.269Z,13.50
2023-05-18T02:45:41.520Z,10.80
2023-05-18T03:00:44.483Z,11.50
2023-05-18T03:15:47.996Z,12.50
2023-05-18T03:30:50.698Z,11.40
2023-05-18T04:00:56.627Z,9.90
2023-05-18T04:31:02.667Z,14.40
2023-05-18T05:01:10.312Z,14.50
2023-05-18T05:16:13.137Z,12.70
2023-05-18T05:46:19.186Z,11.00
2023-05-18T06:01:22.198Z,9.70
2023-05-18T06:16:25.549Z,13.50
2023-05-18T06:31:30.313Z,9.40
2023-05-18T06:46:33.479Z,8.10
2023-05-18T07:01:36.953Z,12.20
2023-05-18T07:16:40.197Z,6.10
2023-05-18T07:31:43.099Z,9.50
2023-05-18T07:46:45.889Z,11.20
2023-05-18T08:01:49.397Z,10.70
2023-05-18T08:16:52.170Z,7.80
2023-05-18T08:31:55.104Z,6.00
2023-05-18T08:46:58.826Z,9.00
2023-05-18T09:02:01.875Z,7.30
2023-05-18T09:17:05.041Z,11.40
2023-05-18T09:32:10.950Z,7.30
2023-05-18T09:47:13.590Z,6.60
2023-05-18T10:02:19.449Z,5.80
2023-05-18T10:17:25.744Z,7.10
2023-05-18T10:32:30.116Z,3.40
2023-05-18T10:47:36.034Z,6.70
2023-05-18T11:02:42.727Z,4.10
2023-05-18T11:17:46.066Z,2.50
2023-05-18T11:32:52.586Z,3.80
2023-05-18T11:48:01.514Z,4.00
2023-05-18T12:03:06.515Z,4.30
2023-05-18T12:18:10.985Z,2.50
2023-05-18T12:33:13.829Z,4.10
2023-05-18T12:48:18.003Z,4.80
2023-05-18T13:03:22.927Z,5.70
2023-05-18T13:18:29.439Z,4.40
2023-05-18T13:33:34.992Z,3.10
2023-05-18T13:48:41.183Z,3.60
2023-05-18T14:19:05.811Z,4.30
2023-05-18T14:34:10.501Z,5.50
2023-05-18T14:49:18.858Z,4.30
2023-05-18T15:04:23.663Z,3.80
2023-05-18T15:19:26.460Z,5.00
2023-05-18T15:34:29.796Z,4.30
2023-05-18T15:49:32.684Z,3.80
2023-05-18T16:04:35.722Z,6.90
2023-05-18T16:19:38.352Z,4.90
2023-05-18T16:34:41.294Z,6.10
2023-05-18T16:49:45.591Z,5.80
2023-05-18T17:04:51.046Z,8.10
2023-05-18T17:19:54.588Z,3.90
2023-05-18T17:34:58.569Z,6.30
2023-05-18T17:50:01.427Z,8.80
2023-05-18T18:05:04.379Z,5.20
2023-05-18T18:20:08.048Z,4.70
2023-05-18T18:35:10.943Z,4.10
2023-05-18T18:50:13.696Z,6.50
2023-05-18T19:05:21.614Z,7.50
2023-05-18T19:20:24.506Z,8.40
2023-05-18T20:05:33.486Z,8.80
2023-05-18T20:20:36.319Z,8.90
2023-05-18T20:35:40.927Z,13.10
2023-05-18T20:50:44.236Z,9.60
2023-05-18T21:05:49.624Z,10.00
2023-05-18T21:20:54.906Z,10.50
2023-05-18T21:35:59.267Z,10.60
2023-05-18T21:51:03.888Z,9.30
2023-05-18T22:06:06.719Z,8.70
2023-05-18T22:51:15.661Z,10.90
2023-05-18T23:06:22.091Z,14.00
2023-05-18T23:21:24.756Z,11.80
2023-05-18T23:36:35.052Z,9.90
2023-05-18T23:51:38.940Z,9.60
